Time;durP1;ratioP1;P1;durP2;ratioP2;P2;SDS_P1;SDS_P2;PMS_P1;PMS_P2;Temp;Humidity;BMP_temperature;BMP_pressure;BME280_temperature;BME280_humidity;BME280_pressure;Samples;Min_cycle;Max_cycle;Signal;HPM_P1;HPM_P2
2022/11/07 00:02:25;;;;;;;4.50;1.52;;;10.40;99.90;;;;;;4972410;28;20117;-71
2022/11/07 00:04:51;;;;;;;2.15;1.30;;;10.40;99.90;;;;;;4954769;28;20085;-73
2022/11/07 00:07:16;;;;;;;4.55;2.17;;;10.40;99.90;;;;;;4971181;28;20042;-71
2022/11/07 00:09:42;;;;;;;2.25;1.35;;;10.40;99.90;;;;;;4972308;28;20030;-72
2022/11/07 00:12:08;;;;;;;2.70;1.45;;;10.40;99.90;;;;;;4972178;28;20045;-72
2022/11/07 00:14:33;;;;;;;3.88;1.67;;;10.30;99.90;;;;;;4971964;28;20034;-72
2022/11/07 00:16:59;;;;;;;1.92;1.17;;;10.30;99.90;;;;;;4971093;28;20027;-72
2022/11/07 00:19:25;;;;;;;5.55;1.77;;;10.30;99.90;;;;;;4972138;28;20031;-71
2022/11/07 00:21:51;;;;;;;3.97;1.77;;;10.30;99.90;;;;;;4972403;28;20039;-72
2022/11/07 00:24:18;;;;;;;2.15;1.45;;;10.30;99.90;;;;;;4971702;28;20122;-72
2022/11/07 00:26:45;;;;;;;3.03;1.73;;;10.30;99.90;;;;;;4972329;28;20042;-72
2022/11/07 00:29:17;;;;;;;3.40;1.45;;;10.30;99.90;;;;;;4970647;28;20054;-71
2022/11/07 00:31:42;;;;;;;3.10;1.38;;;10.20;99.90;;;;;;4970896;28;20118;-72
2022/11/07 00:34:08;;;;;;;2.20;1.35;;;10.30;99.90;;;;;;4971638;28;20114;-71
2022/11/07 00:36:34;;;;;;;3.95;1.25;;;10.30;99.90;;;;;;4971940;28;20057;-72
2022/11/07 00:39:00;;;;;;;3.22;1.15;;;10.30;99.90;;;;;;4970821;28;20034;-72
2022/11/07 00:41:27;;;;;;;2.08;1.42;;;10.30;99.90;;;;;;4970941;28;20030;-72
2022/11/07 00:43:53;;;;;;;2.42;1.23;;;10.40;99.90;;;;;;4971738;28;20033;-71
2022/11/07 00:46:20;;;;;;;1.65;0.88;;;10.50;99.90;;;;;;4971959;28;20476;-71
2022/11/07 00:48:46;;;;;;;2.40;1.27;;;10.40;99.90;;;;;;4971838;28;20027;-72
2022/11/07 00:51:19;;;;;;;1.95;1.05;;;10.50;99.90;;;;;;4971925;28;20117;-72
2022/11/07 00:53:46;;;;;;;2.67;1.35;;;10.40;99.90;;;;;;4974748;28;20411;-72
2022/11/07 00:56:16;;;;;;;3.95;1.50;;;10.50;99.90;;;;;;4974603;28;20030;-72
2022/11/07 00:58:43;;;;;;;2.80;1.42;;;10.50;99.90;;;;;;4974715;28;20394;-72
2022/11/07 01:01:10;;;;;;;3.22;1.15;;;10.50;99.90;;;;;;4975201;28;20030;-72
2022/11/07 01:06:21;;;;;;;3.00;1.40;;;10.50;99.90;;;;;;4974639;28;20039;-71
2022/11/07 01:08:47;;;;;;;6.38;1.55;;;10.50;99.90;;;;;;4974481;28;20046;-72
2022/11/07 01:11:13;;;;;;;5.63;1.30;;;10.50;99.90;;;;;;4975411;28;20030;-72
2022/11/07 01:13:39;;;;;;;8.07;1.70;;;10.50;99.90;;;;;;4973985;28;20046;-72
2022/11/07 01:16:10;;;;;;;3.05;1.83;;;10.60;99.90;;;;;;4975439;28;20080;-72
2022/11/07 01:18:36;;;;;;;3.35;1.15;;;10.60;99.90;;;;;;4975681;28;20122;-72
2022/11/07 01:21:07;;;;;;;2.15;1.20;;;10.60;99.90;;;;;;4974204;28;20530;-72
2022/11/07 01:23:33;;;;;;;;;;;10.50;99.90;;;;;;4975248;28;20066;-71
2022/11/07 01:26:08;;;;;;;1.15;0.77;;;10.60;99.90;;;;;;4974312;28;20342;-72
2022/11/07 01:28:35;;;;;;;5.20;1.10;;;10.60;99.90;;;;;;4975107;28;20046;-72
2022/11/07 01:31:07;;;;;;;1.77;0.82;;;10.60;99.90;;;;;;4977781;28;20106;-72
2022/11/07 01:33:33;;;;;;;1.63;0.80;;;10.60;99.90;;;;;;4974985;28;20027;-71
2022/11/07 01:36:08;;;;;;;2.08;1.30;;;10.60;99.90;;;;;;4973687;28;20035;-72
2022/11/07 01:38:38;;;;;;;2.65;0.95;;;10.60;99.90;;;;;;4974960;28;20050;-72
2022/11/07 01:41:20;;;;;;;2.45;1.30;;;10.50;99.90;;;;;;4975105;28;20392;-72
2022/11/07 01:44:24;;;;;;;2.83;1.25;;;10.50;99.90;;;;;;4974697;28;20109;-72
2022/11/07 01:46:54;;;;;;;4.10;1.20;;;10.40;99.90;;;;;;4974780;28;20045;-73
2022/11/07 01:49:33;;;;;;;2.72;1.15;;;10.30;99.90;;;;;;4973557;28;20030;-72
2022/11/07 01:52:05;;;;;;;3.72;1.52;;;10.30;99.90;;;;;;4973700;28;20046;-72
2022/11/07 01:54:40;;;;;;;3.78;1.90;;;10.30;99.90;;;;;;4974364;28;20035;-72
2022/11/07 01:57:14;;;;;;;2.55;1.33;;;10.20;99.90;;;;;;4973518;28;20469;-72
2022/11/07 01:59:40;;;;;;;3.70;1.45;;;10.20;99.90;;;;;;4973430;28;20391;-72
2022/11/07 02:02:07;;;;;;;2.22;1.25;;;10.20;99.90;;;;;;4972976;28;20118;-72
2022/11/07 02:04:34;;;;;;;4.20;1.25;;;10.20;99.90;;;;;;4974801;28;20394;-72
2022/11/07 02:07:18;;;;;;;2.80;1.15;;;10.20;99.90;;;;;;4984177;28;20022;-71
2022/11/07 02:09:45;;;;;;;1.05;0.82;;;10.20;99.90;;;;;;4984232;28;20102;-72
2022/11/07 02:12:12;;;;;;;1.42;1.05;;;10.20;99.90;;;;;;4977537;28;20027;-72
2022/11/07 02:14:37;;;;;;;3.63;1.67;;;10.20;99.90;;;;;;4973158;28;20486;-72
2022/11/07 02:17:04;;;;;;;1.17;0.80;;;10.30;99.90;;;;;;4993477;28;20092;-72
2022/11/07 02:19:47;;;;;;;4.50;1.95;;;10.30;99.90;;;;;;4992448;28;20473;-72
2022/11/07 02:22:40;;;;;;;2.45;1.10;;;10.30;99.90;;;;;;4992354;28;20137;-72
2022/11/07 02:25:11;;;;;;;3.60;1.80;;;10.30;99.90;;;;;;5011639;23;20038;-72
2022/11/07 02:27:39;;;;;;;4.90;1.60;;;10.40;99.90;;;;;;5011789;28;20057;-72
2022/11/07 02:30:09;;;;;;;2.30;1.08;;;10.40;99.90;;;;;;5011951;28;20433;-73
2022/11/07 02:32:36;;;;;;;2.43;1.33;;;10.40;99.90;;;;;;5011887;28;20367;-72
2022/11/07 02:35:24;;;;;;;1.67;1.10;;;10.50;99.90;;;;;;5011601;28;20482;-73
2022/11/07 02:37:51;;;;;;;1.98;1.02;;;10.40;99.90;;;;;;5011559;28;20030;-73
2022/11/07 02:40:17;;;;;;;1.67;1.20;;;10.40;99.90;;;;;;5011746;28;20073;-72
2022/11/07 02:42:43;;;;;;;3.10;1.50;;;10.40;99.90;;;;;;5011656;28;20036;-73
2022/11/07 02:45:17;;;;;;;3.03;1.23;;;10.40;99.90;;;;;;5011243;28;20034;-72
2022/11/07 02:47:44;;;;;;;3.03;1.30;;;10.30;99.90;;;;;;5011430;28;20034;-72
2022/11/07 02:50:13;;;;;;;2.85;1.35;;;10.20;99.90;;;;;;5012892;28;20034;-72
2022/11/07 02:52:38;;;;;;;2.45;1.10;;;10.10;99.90;;;;;;5011413;28;20446;-73
2022/11/07 02:55:06;;;;;;;2.25;1.30;;;10.10;99.90;;;;;;5012416;28;20054;-73
2022/11/07 02:57:32;;;;;;;2.10;1.35;;;10.00;99.90;;;;;;5012499;28;20568;-73
2022/11/07 02:59:57;;;;;;;3.08;1.15;;;9.90;99.90;;;;;;5011228;28;20482;-72
2022/11/07 03:02:24;;;;;;;3.80;1.80;;;9.90;99.90;;;;;;5012181;28;20033;-72
2022/11/07 03:04:50;;;;;;;4.35;1.65;;;9.90;99.90;;;;;;5011129;28;20034;-72
2022/11/07 03:07:16;;;;;;;3.72;1.38;;;9.90;99.90;;;;;;5012260;28;20029;-72
2022/11/07 03:09:42;;;;;;;3.20;1.33;;;9.80;99.90;;;;;;5012572;28;20033;-72
2022/11/07 03:12:08;;;;;;;3.85;1.65;;;9.80;99.90;;;;;;5012230;28;20389;-73
2022/11/07 03:14:34;;;;;;;3.13;1.50;;;9.90;99.90;;;;;;5009799;28;20080;-73
2022/11/07 03:17:00;;;;;;;2.92;1.55;;;9.90;99.90;;;;;;4992172;28;20068;-73
2022/11/07 03:19:25;;;;;;;2.95;1.38;;;9.90;99.90;;;;;;4992629;28;20039;-73
2022/11/07 03:21:52;;;;;;;3.28;1.13;;;9.90;99.90;;;;;;4992562;28;20034;-73
2022/11/07 03:24:17;;;;;;;2.70;1.23;;;9.90;99.90;;;;;;4992114;28;20042;-73
2022/11/07 03:26:43;;;;;;;1.52;1.08;;;10.00;99.90;;;;;;4992427;28;20034;-74
2022/11/07 03:29:09;;;;;;;2.40;1.08;;;10.00;99.90;;;;;;4992431;28;20030;-73
2022/11/07 03:31:35;;;;;;;3.22;1.55;;;10.00;99.90;;;;;;4991541;28;20483;-73
2022/11/07 03:34:01;;;;;;;4.82;1.75;;;10.10;99.90;;;;;;4998929;28;20029;-73
2022/11/07 03:36:27;;;;;;;1.83;1.05;;;10.10;99.90;;;;;;5010771;28;20030;-73
2022/11/07 03:38:53;;;;;;;6.85;1.80;;;10.20;99.90;;;;;;5011548;28;20034;-73
2022/11/07 03:41:19;;;;;;;3.40;1.90;;;10.20;99.90;;;;;;5011932;28;20110;-73
2022/11/07 03:43:45;;;;;;;2.30;1.27;;;10.20;99.90;;;;;;5010040;28;20132;-73
2022/11/07 03:46:13;;;;;;;2.00;1.33;;;10.20;99.90;;;;;;5011693;28;20026;-73
2022/11/07 03:48:39;;;;;;;1.70;1.00;;;10.20;99.90;;;;;;4994129;28;20026;-73
2022/11/07 03:51:07;;;;;;;3.47;1.27;;;10.20;99.90;;;;;;5010614;28;20076;-73
2022/11/07 03:53:34;;;;;;;2.00;1.08;;;10.20;99.90;;;;;;5010321;28;20030;-73
2022/11/07 03:56:06;;;;;;;3.83;1.63;;;10.30;99.90;;;;;;5011734;28;20038;-73
2022/11/07 03:58:32;;;;;;;2.17;0.93;;;10.40;99.90;;;;;;5010353;28;20028;-73
2022/11/07 04:00:58;;;;;;;3.78;1.25;;;10.40;99.90;;;;;;5011481;28;20030;-73
2022/11/07 04:03:23;;;;;;;4.43;0.80;;;10.50;99.90;;;;;;5008705;28;20129;-73
2022/11/07 04:05:49;;;;;;;3.15;1.17;;;10.50;99.90;;;;;;4991611;28;20453;-73
2022/11/07 04:08:15;;;;;;;4.43;1.23;;;10.50;99.90;;;;;;4991770;28;20109;-73
2022/11/07 04:10:41;;;;;;;2.45;1.30;;;10.50;99.90;;;;;;4991806;28;20737;-73
2022/11/07 04:18:55;;;;;;;2.50;1.13;;;10.40;99.90;;;;;;4958126;28;20066;-72
2022/11/07 04:21:22;;;;;;;2.03;0.98;;;10.40;99.90;;;;;;5002110;28;20026;-72
2022/11/07 04:23:47;;;;;;;4.85;1.65;;;10.40;99.90;;;;;;5009470;28;20389;-72
2022/11/07 04:28:58;;;;;;;7.40;1.55;;;10.50;99.90;;;;;;5010840;28;20033;-72
2022/11/07 04:31:24;;;;;;;1.52;1.17;;;10.50;99.90;;;;;;5011217;28;20025;-73
2022/11/07 04:33:50;;;;;;;2.95;1.63;;;10.40;99.90;;;;;;5010447;28;20034;-73
2022/11/07 04:36:17;;;;;;;2.85;1.05;;;10.40;99.90;;;;;;5009805;28;20037;-73
2022/11/07 04:38:43;;;;;;;1.40;1.02;;;10.50;99.90;;;;;;4993467;28;20030;-73
2022/11/07 04:41:26;;;;;;;9.80;1.67;;;10.50;99.90;;;;;;4991424;28;20027;-73
2022/11/07 04:43:52;;;;;;;1.95;0.98;;;10.50;99.90;;;;;;4991083;28;20034;-73
2022/11/07 04:46:18;;;;;;;4.60;1.58;;;10.50;99.90;;;;;;4990152;28;20042;-73
2022/11/07 04:48:44;;;;;;;2.78;1.65;;;10.50;99.90;;;;;;4989974;28;20022;-74
2022/11/07 04:51:15;;;;;;;4.65;1.65;;;10.50;99.90;;;;;;4989832;28;20049;-74
2022/11/07 04:53:41;;;;;;;2.80;1.73;;;10.60;99.90;;;;;;4989826;28;20037;-73
2022/11/07 04:56:06;;;;;;;10.18;2.20;;;10.60;99.90;;;;;;4989912;28;20034;-74
2022/11/07 04:58:32;;;;;;;2.42;1.00;;;10.60;99.90;;;;;;4991199;28;20038;-74
2022/11/07 05:00:58;;;;;;;13.80;2.53;;;10.60;99.90;;;;;;5005387;28;20038;-73
2022/11/07 05:03:23;;;;;;;1.92;1.13;;;10.60;99.90;;;;;;5010430;28;20038;-74
2022/11/07 05:05:49;;;;;;;3.15;1.23;;;10.60;99.90;;;;;;5010762;28;20029;-73
2022/11/07 05:08:15;;;;;;;2.17;1.15;;;10.60;99.90;;;;;;5009472;28;20032;-74
2022/11/07 05:10:40;;;;;;;4.18;1.58;;;10.60;99.90;;;;;;5010531;28;20048;-73
2022/11/07 05:13:06;;;;;;;3.30;1.27;;;10.60;99.90;;;;;;5010521;28;20113;-74
2022/11/07 05:15:32;;;;;;;2.60;1.10;;;10.70;99.90;;;;;;5000412;28;20054;-74
2022/11/07 05:17:57;;;;;;;11.55;1.52;;;10.70;99.90;;;;;;4990941;28;20052;-73
2022/11/07 05:20:30;;;;;;;1.88;1.23;;;10.70;99.90;;;;;;4990757;28;20035;-74
2022/11/07 05:23:13;;;;;;;3.55;1.58;;;10.70;99.90;;;;;;4989771;28;20034;-74
2022/11/07 05:25:41;;;;;;;1.02;0.80;;;10.80;99.90;;;;;;4998741;28;20442;-75
2022/11/07 05:28:09;;;;;;;2.90;1.38;;;10.90;99.90;;;;;;5003262;28;20034;-75
2022/11/07 05:30:43;;;;;;;7.75;1.75;;;11.00;99.90;;;;;;4908886;28;20042;-73
2022/11/07 05:33:19;;;;;;;5.50;2.08;;;11.10;99.90;;;;;;4999300;28;20038;-74
2022/11/07 05:35:50;;;;;;;2.33;1.42;;;11.10;99.90;;;;;;4990751;28;20569;-74
2022/11/07 05:38:16;;;;;;;;;;;11.20;99.90;;;;;;4994903;28;20045;-70
2022/11/07 05:40:41;;;;;;;2.60;0.73;;;11.30;99.90;;;;;;4994448;28;19975;-73
2022/11/07 05:43:13;;;;;;;4.30;1.10;;;11.30;99.90;;;;;;4994271;28;20030;-74
2022/11/07 05:45:40;;;;;;;1.80;1.10;;;11.40;99.90;;;;;;4993954;28;20060;-75
2022/11/07 05:48:11;;;;;;;2.25;0.93;;;11.40;99.90;;;;;;4994320;28;20096;-74
2022/11/07 05:50:37;;;;;;;3.92;1.65;;;11.50;99.90;;;;;;4992943;28;20105;-75
2022/11/07 05:53:04;;;;;;;1.85;0.77;;;11.50;99.90;;;;;;4992793;28;20452;-74
2022/11/07 05:55:31;;;;;;;0.88;0.50;;;11.60;99.90;;;;;;4975709;28;20117;-74
2022/11/07 05:57:57;;;;;;;6.55;1.55;;;11.60;99.90;;;;;;4997299;28;20045;-72
2022/11/07 06:00:23;;;;;;;4.03;1.13;;;11.60;99.90;;;;;;4993233;28;20541;-74
2022/11/07 06:02:59;;;;;;;2.47;0.75;;;11.70;99.90;;;;;;5002926;28;20030;-73
2022/11/07 06:05:25;;;;;;;2.78;0.70;;;11.70;99.90;;;;;;5011604;28;20524;-74
2022/11/07 06:07:51;;;;;;;6.30;2.72;;;11.70;99.90;;;;;;4995814;28;20075;-73
2022/11/07 06:10:17;;;;;;;5.47;1.17;;;11.70;99.90;;;;;;5017431;28;20109;-74
2022/11/07 06:12:43;;;;;;;3.15;0.82;;;11.70;99.90;;;;;;4993611;28;20466;-75
2022/11/07 06:15:09;;;;;;;5.38;1.65;;;11.80;99.90;;;;;;4998455;28;20030;-74
2022/11/07 06:17:35;;;;;;;10.98;1.30;;;11.80;99.90;;;;;;5011865;28;20078;-74
2022/11/07 06:20:01;;;;;;;1.30;0.70;;;11.90;99.90;;;;;;5011684;28;20104;-74
2022/11/07 06:22:28;;;;;;;4.35;0.90;;;11.90;99.90;;;;;;5011493;28;20148;-73
2022/11/07 06:24:54;;;;;;;1.48;0.73;;;12.00;99.90;;;;;;5010897;28;20109;-73
2022/11/07 06:27:19;;;;;;;9.70;1.20;;;12.00;99.90;;;;;;5012570;28;20438;-73
2022/11/07 06:29:45;;;;;;;2.10;1.13;;;11.90;99.90;;;;;;5012502;28;20026;-73
2022/11/07 06:32:11;;;;;;;10.77;1.17;;;11.90;99.90;;;;;;5011362;28;20036;-75
2022/11/07 06:34:36;;;;;;;1.98;1.05;;;11.90;99.90;;;;;;5012293;28;20034;-73
2022/11/07 06:37:02;;;;;;;1.70;0.68;;;12.00;99.90;;;;;;5012703;28;20033;-73
2022/11/07 06:39:28;;;;;;;0.85;0.47;;;12.00;99.90;;;;;;5010791;28;20037;-73
2022/11/07 06:41:53;;;;;;;3.55;0.80;;;12.00;99.90;;;;;;5012392;28;20029;-75
2022/11/07 06:44:19;;;;;;;1.67;1.33;;;12.00;99.90;;;;;;5012167;28;20041;-73
2022/11/07 06:46:45;;;;;;;0.98;0.65;;;11.90;99.90;;;;;;5012135;28;20041;-74
2022/11/07 06:49:14;;;;;;;0.68;0.38;;;11.90;99.90;;;;;;5012016;28;20034;-78
2022/11/07 06:51:41;;;;;;;4.65;0.85;;;11.90;99.90;;;;;;5010346;28;20029;-72
2022/11/07 06:54:07;;;;;;;1.75;0.60;;;11.80;99.90;;;;;;5012179;28;20033;-72
2022/11/07 06:56:33;;;;;;;3.95;0.80;;;11.80;99.90;;;;;;4994680;28;20068;-73
2022/11/07 06:58:58;;;;;;;7.25;1.02;;;11.70;99.90;;;;;;4994594;28;20108;-74
2022/11/07 07:01:25;;;;;;;2.38;1.10;;;11.80;99.90;;;;;;4998941;28;20154;-73
2022/11/07 07:03:51;;;;;;;1.50;1.20;;;11.80;99.90;;;;;;5010527;28;20886;-73
2022/11/07 07:06:17;;;;;;;2.03;0.85;;;11.80;99.90;;;;;;5012139;28;20112;-73
2022/11/07 07:08:44;;;;;;;0.68;0.50;;;11.80;99.90;;;;;;5011912;28;20201;-73
2022/11/07 07:11:13;;;;;;;4.22;1.05;;;11.80;99.90;;;;;;5011868;28;20065;-73
2022/11/07 07:13:40;;;;;;;8.23;1.50;;;11.80;99.90;;;;;;5011599;28;20026;-73
2022/11/07 07:16:07;;;;;;;1.88;1.00;;;11.70;99.90;;;;;;5010574;28;20494;-74
2022/11/07 07:18:34;;;;;;;26.85;2.25;;;11.80;99.90;;;;;;5010514;28;20065;-73
2022/11/07 07:21:08;;;;;;;5.50;1.85;;;11.80;99.90;;;;;;5010683;28;20116;-72
2022/11/07 07:23:34;;;;;;;3.22;1.15;;;11.90;99.90;;;;;;5010567;28;20026;-73
2022/11/07 07:26:06;;;;;;;4.70;0.98;;;11.90;99.90;;;;;;5010394;28;20038;-72
2022/11/07 07:28:32;;;;;;;4.82;1.13;;;11.90;99.90;;;;;;5010425;28;20044;-73
2022/11/07 07:31:13;;;;;;;3.95;1.00;;;11.90;99.90;;;;;;5011721;28;20049;-72
2022/11/07 07:33:41;;;;;;;2.65;1.38;;;11.90;99.90;;;;;;5010670;28;20034;-72
2022/11/07 07:36:08;;;;;;;1.30;0.63;;;11.90;99.90;;;;;;5010662;28;20038;-72
2022/11/07 07:38:34;;;;;;;0.88;0.65;;;11.90;99.90;;;;;;5011234;28;20441;-72
2022/11/07 07:41:00;;;;;;;2.53;1.23;;;12.00;99.90;;;;;;5008994;28;20041;-73
2022/11/07 07:43:27;;;;;;;2.28;1.08;;;12.00;99.90;;;;;;5011094;28;20821;-72
2022/11/07 07:46:00;;;;;;;4.55;0.60;;;12.00;99.90;;;;;;5008455;28;20030;-73
2022/11/07 07:48:26;;;;;;;5.32;1.00;;;12.10;99.90;;;;;;4999238;28;20041;-73
2022/11/07 07:50:52;;;;;;;6.85;1.98;;;12.10;99.90;;;;;;5005499;28;20036;-75
2022/11/07 07:53:18;;;;;;;5.10;1.17;;;12.10;99.90;;;;;;5011319;28;20381;-74
2022/11/07 07:55:44;;;;;;;1.55;0.85;;;12.00;99.90;;;;;;5009837;28;20033;-74
2022/11/07 07:58:11;;;;;;;2.83;0.90;;;12.10;99.90;;;;;;4997541;28;20026;-75
2022/11/07 08:00:38;;;;;;;7.35;0.90;;;12.20;99.90;;;;;;4991827;28;20030;-75
2022/11/07 08:03:10;;;;;;;2.53;0.93;;;12.20;99.90;;;;;;4991313;28;20030;-76
2022/11/07 08:05:38;;;;;;;0.70;0.57;;;12.20;99.90;;;;;;4990331;28;20129;-74
2022/11/07 08:08:06;;;;;;;5.07;0.75;;;12.30;99.90;;;;;;5005875;28;20031;-76
2022/11/07 08:10:32;;;;;;;5.22;1.52;;;12.30;99.90;;;;;;5018560;28;20493;-73
2022/11/07 08:12:58;;;;;;;3.80;1.02;;;12.30;99.90;;;;;;5006358;28;20066;-73
2022/11/07 08:15:24;;;;;;;1.42;0.60;;;12.30;99.90;;;;;;5006076;28;20062;-73
2022/11/07 08:17:50;;;;;;;14.45;1.23;;;12.40;99.90;;;;;;4991572;28;20026;-74
2022/11/07 08:20:23;;;;;;;0.98;0.57;;;12.40;99.90;;;;;;4991206;28;20728;-73
2022/11/07 08:22:49;;;;;;;3.92;0.55;;;12.40;99.90;;;;;;4991433;28;20034;-77
2022/11/07 08:25:15;;;;;;;0.57;0.50;;;12.40;99.90;;;;;;5009851;23;20140;-74
2022/11/07 08:27:41;;;;;;;1.27;0.60;;;12.40;99.90;;;;;;5010555;28;20129;-74
2022/11/07 08:30:09;;;;;;;1.05;0.65;;;12.30;99.90;;;;;;5009339;28;20042;-73
2022/11/07 08:32:35;;;;;;;1.05;0.70;;;12.40;99.90;;;;;;5009607;28;20035;-72
2022/11/07 08:35:00;;;;;;;1.35;0.82;;;12.40;99.90;;;;;;5015325;28;20030;-73
2022/11/07 08:37:26;;;;;;;2.85;1.00;;;12.40;99.90;;;;;;5030469;28;20122;-73
2022/11/07 08:39:52;;;;;;;3.60;1.05;;;12.50;99.90;;;;;;5030466;28;20035;-73
2022/11/07 08:42:17;;;;;;;0.43;0.43;;;12.40;99.90;;;;;;5030387;28;20069;-73
2022/11/07 08:44:43;;;;;;;3.28;1.23;;;12.50;99.90;;;;;;5029930;28;20070;-73
2022/11/07 08:47:09;;;;;;;13.70;1.08;;;12.50;99.90;;;;;;5027264;28;20037;-73
2022/11/07 08:49:35;;;;;;;2.95;0.98;;;12.50;99.90;;;;;;5014039;28;20032;-73
2022/11/07 08:52:01;;;;;;;6.75;0.90;;;12.50;99.90;;;;;;5023122;28;20117;-72
2022/11/07 08:54:27;;;;;;;5.50;0.93;;;12.60;99.90;;;;;;5010033;28;20036;-72
2022/11/07 08:56:53;;;;;;;3.83;0.80;;;12.60;99.90;;;;;;5010643;28;20084;-72
2022/11/07 08:59:21;;;;;;;1.40;0.70;;;12.60;99.90;;;;;;5009290;28;20037;-72
2022/11/07 09:01:47;;;;;;;2.05;0.85;;;12.70;99.90;;;;;;5010710;28;20029;-72
2022/11/07 09:04:13;;;;;;;4.47;0.60;;;12.80;99.90;;;;;;5009110;28;20084;-72
2022/11/07 09:06:38;;;;;;;0.90;0.68;;;12.80;99.90;;;;;;5012881;28;20066;-72
2022/11/07 09:09:04;;;;;;;2.90;0.95;;;12.70;99.90;;;;;;5015682;28;20025;-72
2022/11/07 09:11:30;;;;;;;2.47;0.93;;;12.70;99.90;;;;;;5018102;28;20170;-73
2022/11/07 09:13:56;;;;;;;3.42;0.90;;;12.70;99.90;;;;;;5011715;28;20034;-73
2022/11/07 09:16:23;;;;;;;1.90;0.50;;;12.60;99.90;;;;;;5013997;28;20508;-72
2022/11/07 09:18:50;;;;;;;3.00;0.90;;;12.70;99.90;;;;;;5012734;28;20500;-73
2022/11/07 09:21:17;;;;;;;2.47;1.00;;;12.70;99.90;;;;;;5013157;28;20038;-74
2022/11/07 09:23:43;;;;;;;2.40;0.77;;;12.80;99.90;;;;;;5013793;28;20061;-73
2022/11/07 09:26:08;;;;;;;5.57;1.00;;;12.80;99.90;;;;;;5013964;28;20076;-74
2022/11/07 09:28:34;;;;;;;2.65;0.82;;;12.90;99.90;;;;;;5030787;28;20038;-73
2022/11/07 09:31:02;;;;;;;4.60;0.75;;;12.90;99.90;;;;;;5033892;28;20036;-73
2022/11/07 09:33:29;;;;;;;11.43;2.35;;;12.90;99.90;;;;;;5032175;28;20100;-72
2022/11/07 09:35:59;;;;;;;3.92;1.15;;;12.90;99.90;;;;;;5033335;28;20026;-73
2022/11/07 09:38:25;;;;;;;8.38;1.98;;;13.00;99.90;;;;;;5032308;28;20033;-73
2022/11/07 09:41:49;;;;;;;2.80;0.80;;;13.00;99.90;;;;;;5029741;28;20051;-72
2022/11/07 09:44:54;;;;;;;3.25;0.95;;;13.00;99.90;;;;;;5013092;28;20655;-72
2022/11/07 09:47:36;;;;;;;1.10;0.30;;;13.00;99.90;;;;;;5012289;28;20037;-73
2022/11/07 09:50:17;;;;;;;;;;;12.90;99.90;;;;;;5014181;28;20039;-73
2022/11/07 09:52:57;;;;;;;4.95;2.15;;;13.00;99.90;;;;;;5013701;28;20427;-72
2022/11/07 09:55:35;;;;;;;19.83;1.30;;;12.90;99.90;;;;;;5011744;28;20038;-74
2022/11/07 09:58:10;;;;;;;4.75;1.13;;;13.00;99.90;;;;;;5013389;28;20049;-73
2022/11/07 10:00:36;;;;;;;5.50;0.95;;;13.20;99.90;;;;;;5013437;28;20096;-74
2022/11/07 10:03:02;;;;;;;2.60;1.33;;;13.00;99.90;;;;;;5013427;28;20030;-74
2022/11/07 10:06:10;;;;;;;6.68;1.63;;;13.10;99.90;;;;;;5011923;28;20034;-74
2022/11/07 10:08:52;;;;;;;3.50;0.95;;;13.20;99.90;;;;;;5013068;28;20042;-74
2022/11/07 10:11:36;;;;;;;;;;;13.30;99.90;;;;;;5012480;28;20057;-74
2022/11/07 10:14:38;;;;;;;2.50;0.60;;;13.30;99.90;;;;;;5012874;28;19953;-72
2022/11/07 10:17:35;;;;;;;2.20;0.93;;;13.10;99.90;;;;;;5012131;28;20022;-73
2022/11/07 10:20:29;;;;;;;2.38;0.77;;;13.20;99.90;;;;;;5019711;28;20045;-74
2022/11/07 10:23:28;;;;;;;3.22;1.25;;;13.50;99.90;;;;;;5028549;28;20017;-73
2022/11/07 10:26:24;;;;;;;2.78;1.02;;;13.70;99.90;;;;;;5012670;28;20505;-73
2022/11/07 10:29:17;;;;;;;5.00;0.55;;;13.60;99.90;;;;;;5000967;28;20509;-73
2022/11/07 10:31:53;;;;;;;4.28;0.75;;;13.60;99.90;;;;;;5030943;28;20037;-74
2022/11/07 10:34:30;;;;;;;2.47;0.75;;;13.60;99.90;;;;;;5030382;28;20552;-71
2022/11/07 10:36:55;;;;;;;2.20;0.98;;;13.60;99.90;;;;;;5030586;28;20069;-73
2022/11/07 10:39:21;;;;;;;12.48;2.15;;;13.70;99.90;;;;;;5029798;28;20071;-74
2022/11/07 10:42:18;;;;;;;0.63;0.40;;;13.80;99.90;;;;;;5021163;28;20030;-73
2022/11/07 10:44:44;;;;;;;11.80;1.20;;;13.70;99.90;;;;;;5030500;28;20041;-73
2022/11/07 10:47:20;;;;;;;3.78;1.55;;;13.70;99.90;;;;;;5030836;28;20100;-73
2022/11/07 10:50:15;;;;;;;1.85;0.90;;;13.70;99.90;;;;;;5031102;28;20129;-73
2022/11/07 10:52:41;;;;;;;4.93;0.63;;;13.70;99.90;;;;;;5031407;28;20923;-72
2022/11/07 10:55:17;;;;;;;2.33;1.23;;;13.90;99.90;;;;;;5031642;28;20076;-72
2022/11/07 10:57:50;;;;;;;15.30;1.73;;;13.90;99.90;;;;;;5021701;28;20040;-74
2022/11/07 11:00:39;;;;;;;15.07;1.23;;;13.90;99.90;;;;;;5010818;28;20038;-74
2022/11/07 11:03:23;;;;;;;7.80;1.00;;;13.90;99.90;;;;;;5011739;28;20100;-74
2022/11/07 11:05:49;;;;;;;6.22;1.63;;;13.80;99.90;;;;;;5010839;28;20087;-74
2022/11/07 11:08:30;;;;;;;11.05;1.13;;;14.00;99.90;;;;;;5012044;28;20038;-76
2022/11/07 11:10:56;;;;;;;2.10;0.60;;;14.00;99.90;;;;;;5012093;28;20033;-74
2022/11/07 11:13:31;;;;;;;2.28;0.45;;;13.90;99.90;;;;;;5010533;28;20041;-74
2022/11/07 11:16:07;;;;;;;7.22;0.77;;;13.90;99.90;;;;;;5010317;28;20182;-78
2022/11/07 11:18:33;;;;;;;6.93;1.05;;;13.90;99.90;;;;;;5011621;28;20034;-73
2022/11/07 11:21:05;;;;;;;2.50;0.73;;;14.10;99.90;;;;;;5010184;28;20042;-71
2022/11/07 11:23:36;;;;;;;11.63;1.00;;;14.40;99.90;;;;;;5011460;28;20396;-71
2022/11/07 11:26:11;;;;;;;3.53;1.35;;;14.80;99.90;;;;;;5010243;28;20124;-71
2022/11/07 11:28:42;;;;;;;3.25;1.65;;;14.70;99.90;;;;;;5027498;28;20065;-72
2022/11/07 11:31:19;;;;;;;4.93;1.40;;;14.70;99.90;;;;;;5031748;28;20194;-72
2022/11/07 11:33:53;;;;;;;6.32;1.17;;;14.70;99.90;;;;;;5029502;28;20033;-73
2022/11/07 11:36:26;;;;;;;1.20;0.50;;;14.50;99.90;;;;;;5029679;28;20377;-74
2022/11/07 11:38:53;;;;;;;6.03;0.90;;;14.60;99.90;;;;;;5030177;28;20061;-73
2022/11/07 11:41:34;;;;;;;3.67;0.60;;;14.50;99.90;;;;;;5022144;28;20029;-73
2022/11/07 11:44:05;;;;;;;2.05;0.60;;;14.40;99.90;;;;;;5026215;28;20030;-74
2022/11/07 11:46:41;;;;;;;5.22;0.85;;;14.50;99.90;;;;;;5010283;28;20048;-72
2022/11/07 11:49:36;;;;;;;8.30;0.98;;;14.70;99.90;;;;;;5025113;28;20036;-71
2022/11/07 11:52:24;;;;;;;2.40;0.40;;;14.60;99.90;;;;;;5030999;28;20108;-72
2022/11/07 11:54:53;;;;;;;5.30;0.50;;;14.90;99.90;;;;;;5029565;28;20482;-73
2022/11/07 11:57:24;;;;;;;2.13;1.25;;;15.00;99.90;;;;;;5017010;28;20543;-72
2022/11/07 12:00:08;;;;;;;5.60;2.45;;;15.30;99.90;;;;;;5031199;28;20042;-72
2022/11/07 12:02:49;;;;;;;1.60;0.40;;;15.70;99.90;;;;;;5030792;28;20049;-72
2022/11/07 12:05:33;;;;;;;2.60;0.80;;;15.80;99.90;;;;;;5029586;28;20034;-72
2022/11/07 12:08:30;;;;;;;2.05;0.70;;;15.90;99.90;;;;;;5030753;28;20056;-72
2022/11/07 12:11:26;;;;;;;9.85;0.85;;;16.60;99.90;;;;;;5030769;28;20037;-71
2022/11/07 12:14:41;;;;;;;1.13;0.40;;;16.70;99.90;;;;;;5029193;28;20029;-70
2022/11/07 12:17:16;;;;;;;5.93;1.13;;;16.80;99.90;;;;;;5030604;28;20481;-71
2022/11/07 12:19:56;;;;;;;4.65;1.13;;;16.40;99.90;;;;;;5029238;28;20025;-71
2022/11/07 12:22:38;;;;;;;7.68;0.70;;;16.50;99.90;;;;;;5046187;28;20042;-72
2022/11/07 12:25:26;;;;;;;7.45;1.00;;;16.20;99.90;;;;;;5028836;28;20021;-71
2022/11/07 12:28:25;;;;;;;5.60;1.10;;;16.10;99.90;;;;;;5029185;28;20034;-71
2022/11/07 12:31:06;;;;;;;1.88;0.80;;;16.00;99.90;;;;;;5030402;28;20501;-71
2022/11/07 12:33:52;;;;;;;5.10;1.30;;;16.20;99.90;;;;;;5030333;28;20025;-70
2022/11/07 12:37:10;;;;;;;3.88;0.90;;;15.90;99.90;;;;;;5029115;28;20397;-69
2022/11/07 12:39:57;;;;;;;1.00;0.52;;;16.10;99.90;;;;;;5030297;28;20041;-69
2022/11/07 12:42:39;;;;;;;5.97;2.58;;;15.80;99.90;;;;;;5029181;28;20086;-70
2022/11/07 12:45:40;;;;;;;7.85;1.25;;;15.80;99.90;;;;;;5028918;28;20033;-70
2022/11/07 12:48:43;;;;;;;1.15;0.40;;;16.20;99.90;;;;;;5027042;28;20138;-71
2022/11/07 12:51:41;;;;;;;2.03;1.15;;;16.80;99.90;;;;;;5034332;28;20041;-71
2022/11/07 12:54:57;;;;;;;1.02;0.57;;;17.90;99.90;;;;;;5034141;28;20117;-71
2022/11/07 12:57:30;;;;;;;1.58;0.52;;;18.10;99.90;;;;;;5016850;28;20117;-71
2022/11/07 13:00:05;;;;;;;2.45;0.88;;;18.40;99.90;;;;;;5033166;28;20564;-71
2022/11/07 13:02:43;;;;;;;7.85;0.82;;;18.20;99.90;;;;;;5034406;28;20072;-72
2022/11/07 13:05:56;;;;;;;4.10;0.70;;;18.50;99.90;;;;;;5030033;28;20501;-72
2022/11/07 13:08:39;;;;;;;4.13;0.85;;;18.90;99.90;;;;;;5013757;28;20051;-70
2022/11/07 13:11:13;;;;;;;5.45;1.23;;;19.20;99.90;;;;;;5029781;28;20100;-70
2022/11/07 13:14:18;;;;;;;3.08;0.88;;;18.40;99.90;;;;;;5033991;28;20056;-70
2022/11/07 13:17:14;;;;;;;5.50;0.75;;;17.10;99.90;;;;;;5029291;28;20033;-71
2022/11/07 13:19:56;;;;;;;2.85;0.85;;;16.80;99.90;;;;;;5021796;28;20072;-72
2022/11/07 13:22:31;;;;;;;4.85;0.90;;;16.40;99.90;;;;;;5012991;28;20065;-69
2022/11/07 13:25:10;;;;;;;2.17;0.43;;;16.10;99.90;;;;;;5013642;28;20083;-69